»·PEaware :: SWA1702 KLAS-KSAN

SWA1702 :: KLAS-KSAN

FLIGHT INFORMATION

Flight Status: Arrived
Operator:
Southwest Airlines
More flights by this operator :: More flights under this callsign
Pilot: Alfredo R. (12181)
Aircraft: BOEING 737-300
(B733)
More flights by this aircraft type
Origin: KLAS McCarran Intl
United States
Destination: KSAN San Diego Intl-Lindbergh
United States
More flights between these airports :: More routes between these airports
Route: BOACH8 LVELL LUCKI1
File this flight plan on PilotEdge
Remarks:
Altitude:
(Current/Filed)
28,000ft
Speed:
(Current/Filed)
425kts
Departed: 12-Dec-18 07:47 PM
Arrived: 12-Dec-18 08:31 PM
Distance/Time
Traveled:
225nm/0:44
Distance/Time
To Go:
Arrived

Flight Plot

Page will automatically refresh every two minutes.

Flight plan parsing failed; only flown route is shown


Map Options




Map Legend


Flown Route
Filed Route
Departure Airport
Arrival Airport
Navaid (VOR, NDB)
Fix

Horizontal Profiles

Position Reports

Time Latitude Longitude Heading Altitude Ground
Speed
12-Dec-18 19:07 36.079781 -115.146272 342 2093ft 0kts
12-Dec-18 19:08 36.079781 -115.146272 342 2093ft 0kts
12-Dec-18 19:08 36.079781 -115.146272 342 2093ft 0kts
12-Dec-18 19:10 36.079781 -115.146272 342 2093ft 0kts
12-Dec-18 19:10 36.079781 -115.146272 342 2093ft 0kts
12-Dec-18 19:12 36.079781 -115.146272 342 2093ft 0kts
12-Dec-18 19:12 36.079781 -115.146272 342 2093ft 0kts
12-Dec-18 19:14 36.079781 -115.146272 342 2093ft 0kts
12-Dec-18 19:14 36.079781 -115.146272 342 2093ft 0kts
12-Dec-18 19:15 36.079781 -115.146272 342 2093ft 0kts
12-Dec-18 19:16 36.079781 -115.146272 342 2093ft 0kts
12-Dec-18 19:17 36.079781 -115.146272 342 2093ft 0kts
12-Dec-18 19:18 36.079781 -115.146272 342 2093ft 0kts
12-Dec-18 19:19 36.079781 -115.146272 342 2093ft 0kts
12-Dec-18 19:20 36.079781 -115.146272 342 2093ft 0kts
12-Dec-18 19:21 36.079781 -115.146272 342 2093ft 0kts
12-Dec-18 19:22 36.079781 -115.146272 342 2093ft 0kts
12-Dec-18 19:23 36.079489 -115.146126 339 2094ft 2kts
12-Dec-18 19:24 36.079265 -115.145561 271 2093ft 2kts
12-Dec-18 19:25 36.079378 -115.144892 201 2091ft 2kts
12-Dec-18 19:26 36.078919 -115.144895 181 2092ft 0kts
12-Dec-18 19:27 36.078918 -115.144895 181 2092ft 0kts
12-Dec-18 19:28 36.078918 -115.144895 181 2092ft 0kts
12-Dec-18 19:29 36.078918 -115.144895 181 2092ft 0kts
12-Dec-18 19:30 36.078918 -115.144895 181 2092ft 0kts
12-Dec-18 19:31 36.078774 -115.144899 180 2092ft 1kts
12-Dec-18 19:32 36.078511 -115.144849 151 2093ft 2kts
12-Dec-18 19:33 36.077699 -115.145951 274 2099ft 7kts
12-Dec-18 19:34 36.077941 -115.149858 274 2110ft 13kts
12-Dec-18 19:35 36.078022 -115.154656 269 2129ft 14kts
12-Dec-18 19:36 36.078016 -115.160147 268 2148ft 16kts
12-Dec-18 19:37 36.076965 -115.163714 204 2163ft 12kts
12-Dec-18 19:38 36.074047 -115.165436 222 2175ft 9kts
12-Dec-18 19:39 36.073935 -115.166266 292 2178ft 0kts
12-Dec-18 19:40 36.073935 -115.166266 292 2178ft 0kts
12-Dec-18 19:41 36.073935 -115.166266 292 2178ft 0kts
12-Dec-18 19:42 36.073935 -115.166266 292 2178ft 0kts
12-Dec-18 19:43 36.073935 -115.166266 292 2178ft 0kts
12-Dec-18 19:44 36.073937 -115.166271 293 2178ft 0kts
12-Dec-18 19:45 36.074342 -115.167010 326 2180ft 8kts
12-Dec-18 19:46 36.084542 -115.161561 26 2137ft 117kts
12-Dec-18 19:47 36.127685 -115.144492 350 3932ft 191kts
12-Dec-18 19:48 36.142869 -115.208583 250 6522ft 255kts
12-Dec-18 19:49 36.107222 -115.286622 233 8743ft 281kts
12-Dec-18 19:50 36.030383 -115.327039 202 10292ft 343kts
12-Dec-18 19:51 35.937213 -115.371717 205 12399ft 375kts
12-Dec-18 19:52 35.836026 -115.357912 159 14738ft 397kts
12-Dec-18 19:53 35.731905 -115.315515 163 16898ft 414kts
12-Dec-18 19:54 35.620919 -115.306410 196 18899ft 415kts
12-Dec-18 19:55 35.506961 -115.332579 196 20790ft 430kts
12-Dec-18 19:56 35.388454 -115.358773 196 22541ft 444kts
12-Dec-18 19:57 35.266686 -115.385582 197 23971ft 456kts
12-Dec-18 19:58 35.141791 -115.412990 196 25372ft 463kts
12-Dec-18 19:59 35.014209 -115.440909 197 26593ft 473kts
12-Dec-18 20:00 34.884178 -115.469270 197 27571ft 487kts
12-Dec-18 20:01 34.752863 -115.497627 197 28146ft 467kts
12-Dec-18 20:02 34.626390 -115.525107 197 28277ft 464kts
12-Dec-18 20:03 34.499886 -115.552434 197 28295ft 465kts
12-Dec-18 20:04 34.373149 -115.579737 197 28293ft 465kts
12-Dec-18 20:05 34.247129 -115.606798 197 28293ft 465kts
12-Dec-18 20:06 34.127593 -115.653489 209 28287ft 450kts
12-Dec-18 20:07 34.011809 -115.708754 209 28294ft 452kts
12-Dec-18 20:08 33.895770 -115.763806 209 28226ft 452kts
12-Dec-18 20:09 33.780032 -115.820450 209 28183ft 452kts
12-Dec-18 20:10 33.664361 -115.874806 208 27892ft 456kts
12-Dec-18 20:11 33.546187 -115.930041 208 26211ft 464kts
12-Dec-18 20:12 33.464044 -116.028088 247 24426ft 417kts
12-Dec-18 20:13 33.402333 -116.138682 243 22612ft 388kts
12-Dec-18 20:14 33.341200 -116.243182 236 20814ft 385kts
12-Dec-18 20:15 33.247165 -116.303404 210 19040ft 381kts
12-Dec-18 20:16 33.155493 -116.356689 210 17265ft 365kts
12-Dec-18 20:17 33.066057 -116.408940 210 15478ft 354kts
12-Dec-18 20:18 32.983731 -116.465571 224 13697ft 338kts
12-Dec-18 20:19 32.913615 -116.537026 223 12068ft 332kts
12-Dec-18 20:20 32.845203 -116.605781 222 10441ft 318kts
12-Dec-18 20:21 32.779685 -116.671801 224 8830ft 306kts
12-Dec-18 20:22 32.739058 -116.751193 243 7332ft 281kts
12-Dec-18 20:23 32.704360 -116.827587 251 6122ft 251kts
12-Dec-18 20:24 32.681692 -116.901727 252 4914ft 230kts
12-Dec-18 20:25 32.679672 -116.969530 288 3908ft 200kts
12-Dec-18 20:26 32.694363 -117.028648 288 2942ft 175kts
12-Dec-18 20:27 32.707095 -117.080780 288 2127ft 159kts
12-Dec-18 20:28 32.719174 -117.128308 288 1338ft 158kts
12-Dec-18 20:29 32.731548 -117.181262 284 69ft 177kts
12-Dec-18 20:30 32.739759 -117.209448 247 11ft 8kts

Navigation Log

Ident Type
Flight plan parsing failed, navigation log unavailable